createdAt,value
2023-05-18T00:04:17.371Z,100505.84
2023-05-18T00:09:16.621Z,100508.06
2023-05-18T00:14:15.606Z,100512.41
2023-05-18T00:19:16.357Z,100511.69
2023-05-18T00:24:15.945Z,100507.81
2023-05-18T00:29:14.701Z,100500.81
2023-05-18T00:34:16.625Z,100505.19
2023-05-18T00:39:15.334Z,100496.06
2023-05-18T00:44:14.147Z,100494.38
2023-05-18T00:49:13.130Z,100494.38
2023-05-18T00:54:13.479Z,100519.28
2023-05-18T00:59:12.412Z,100519.91
2023-05-18T01:04:14.360Z,100522.59
2023-05-18T01:09:16.403Z,100521.88
2023-05-18T01:14:19.303Z,100522.97
2023-05-18T01:19:40.197Z,100517.06
2023-05-18T01:24:44.614Z,100515.97
2023-05-18T01:29:47.360Z,100524.78
2023-05-18T01:34:46.191Z,100523.59
2023-05-18T01:39:45.024Z,100519.00
2023-05-18T01:44:49.828Z,100530.19
2023-05-18T01:49:55.072Z,100532.97
2023-05-18T01:54:57.588Z,100531.16
2023-05-18T02:00:00.228Z,100536.47
2023-05-18T02:04:59.285Z,100534.94
2023-05-18T02:09:58.158Z,100521.50
2023-05-18T02:14:58.638Z,100508.72
2023-05-18T02:19:57.563Z,100516.28
2023-05-18T02:24:57.011Z,100560.63
2023-05-18T02:29:56.925Z,100559.94
2023-05-18T02:34:57.276Z,100548.94
2023-05-18T02:39:56.082Z,100545.31
2023-05-18T02:44:56.328Z,100557.63
2023-05-18T02:49:55.402Z,100553.41
2023-05-18T02:54:56.409Z,100564.75
2023-05-18T03:00:13.336Z,100575.38
2023-05-18T03:05:12.259Z,100577.91
2023-05-18T03:10:12.864Z,100574.84
2023-05-18T03:15:13.967Z,100582.09
2023-05-18T03:20:15.701Z,100592.44
2023-05-18T03:25:16.613Z,100600.28
2023-05-18T03:30:18.034Z,100607.75
2023-05-18T03:35:17.516Z,100600.75
2023-05-18T03:40:20.622Z,100599.31
2023-05-18T03:45:21.294Z,100620.94
2023-05-18T03:50:20.198Z,100623.38
2023-05-18T03:55:21.647Z,100625.34
2023-05-18T04:00:20.963Z,100624.50
2023-05-18T04:05:21.100Z,100628.72
2023-05-18T04:10:22.153Z,100628.59
2023-05-18T04:15:20.957Z,100635.03
2023-05-18T04:20:21.357Z,100640.81
2023-05-18T04:25:21.541Z,100645.78
2023-05-18T04:30:22.623Z,100661.13
2023-05-18T04:35:22.502Z,100679.97
2023-05-18T04:40:23.437Z,100682.00
2023-05-18T04:45:22.994Z,100686.72
2023-05-18T04:50:24.753Z,100693.25
2023-05-18T04:55:28.419Z,100691.81
2023-05-18T05:00:32.021Z,100687.69
2023-05-18T05:05:31.293Z,100686.25
2023-05-18T05:10:31.684Z,100689.41
2023-05-18T05:15:32.143Z,100688.78
2023-05-18T05:20:31.019Z,100701.84
2023-05-18T05:25:31.673Z,100712.13
2023-05-18T05:30:30.988Z,100702.69
2023-05-18T05:35:31.884Z,100718.03
2023-05-18T05:40:33.593Z,100718.66
2023-05-18T05:45:32.937Z,100734.75
2023-05-18T05:50:35.762Z,100728.81
2023-05-18T05:55:41.379Z,100726.13
2023-05-18T06:00:47.217Z,100729.50
2023-05-18T06:05:46.513Z,100738.25
2023-05-18T06:10:51.211Z,100733.78
2023-05-18T06:15:50.683Z,100731.81
2023-05-18T06:20:49.582Z,100737.13
2023-05-18T06:25:50.919Z,100736.38
2023-05-18T06:31:06.846Z,100747.72
2023-05-18T06:36:28.722Z,100745.41
2023-05-18T06:41:30.915Z,100744.00
2023-05-18T06:46:31.840Z,100752.31
2023-05-18T06:51:39.445Z,100752.09
2023-05-18T06:56:39.986Z,100753.56
2023-05-18T07:01:38.904Z,100748.28
2023-05-18T07:06:38.443Z,100763.38
2023-05-18T07:11:37.187Z,100766.41
2023-05-18T07:16:37.593Z,100767.59
2023-05-18T07:21:36.395Z,100769.06
2023-05-18T07:26:35.144Z,100781.28
2023-05-18T07:31:45.029Z,100785.38
2023-05-18T07:36:52.477Z,100786.91
2023-05-18T07:41:51.515Z,100798.03
2023-05-18T07:46:50.405Z,100789.47
2023-05-18T07:51:53.551Z,100797.59
2023-05-18T07:56:52.837Z,100803.94
2023-05-18T08:01:51.708Z,100804.91
2023-05-18T08:06:56.393Z,100810.81
2023-05-18T08:11:55.200Z,100819.50
2023-05-18T08:16:54.066Z,100819.03
2023-05-18T08:21:54.348Z,100825.59
2023-05-18T08:26:53.273Z,100822.63
2023-05-18T08:31:52.892Z,100819.34
2023-05-18T08:36:53.165Z,100829.25
2023-05-18T08:42:02.495Z,100831.00
2023-05-18T08:47:02.059Z,100837.94
2023-05-18T08:52:05.672Z,100839.38
2023-05-18T08:57:12.074Z,100834.34
2023-05-18T09:02:11.522Z,100837.94
2023-05-18T09:07:11.776Z,100842.88
2023-05-18T09:12:12.963Z,100839.19
2023-05-18T09:17:12.027Z,100836.31
2023-05-18T09:22:10.995Z,100827.97
2023-05-18T09:27:11.191Z,100821.75
2023-05-18T09:32:12.255Z,100826.47
2023-05-18T09:37:11.325Z,100819.56
2023-05-18T09:42:12.401Z,100820.53
2023-05-18T09:47:11.793Z,100805.72
2023-05-18T09:52:11.017Z,100813.00
2023-05-18T09:57:14.364Z,100808.34
2023-05-18T10:02:15.587Z,100805.53
2023-05-18T10:07:17.387Z,100803.53
2023-05-18T10:12:19.873Z,100810.09
2023-05-18T10:17:18.808Z,100805.13
2023-05-18T10:22:19.717Z,100811.03
2023-05-18T10:27:25.474Z,100809.13
2023-05-18T10:32:25.513Z,100786.94
2023-05-18T10:37:25.324Z,100783.06
2023-05-18T10:42:31.161Z,100783.44
2023-05-18T10:47:31.040Z,100776.81
2023-05-18T10:52:32.042Z,100779.88
2023-05-18T10:57:40.203Z,100781.34
2023-05-18T11:02:43.108Z,100777.56
2023-05-18T11:07:46.431Z,100781.50
2023-05-18T11:12:46.720Z,100778.63
2023-05-18T11:17:45.439Z,100780.50
2023-05-18T11:22:46.887Z,100776.53
2023-05-18T11:27:46.731Z,100780.00
2023-05-18T11:32:52.697Z,100772.44
2023-05-18T11:37:51.857Z,100767.00
2023-05-18T11:42:59.538Z,100769.91
2023-05-18T11:48:03.051Z,100767.41
2023-05-18T11:53:02.467Z,100771.31
2023-05-18T11:58:02.630Z,100765.72
2023-05-18T12:03:02.928Z,100760.97
2023-05-18T12:08:02.046Z,100750.81
2023-05-18T12:13:02.925Z,100753.41
2023-05-18T12:18:01.787Z,100764.22
2023-05-18T12:23:01.260Z,100774.13
2023-05-18T12:28:05.284Z,100766.34
2023-05-18T12:33:05.073Z,100762.47
2023-05-18T12:38:05.044Z,100762.13
2023-05-18T12:43:05.741Z,100752.09
2023-05-18T12:48:08.731Z,100745.41
2023-05-18T12:53:08.058Z,100748.13
2023-05-18T12:58:17.134Z,100740.19
2023-05-18T13:03:22.017Z,100740.47
2023-05-18T13:08:22.517Z,100743.56
2023-05-18T13:13:23.405Z,100744.41
2023-05-18T13:18:23.381Z,100742.25
2023-05-18T13:23:27.195Z,100742.03
2023-05-18T13:28:29.700Z,100750.44
2023-05-18T13:33:35.716Z,100733.16
2023-05-18T13:38:37.341Z,100739.09
2023-05-18T13:43:37.525Z,100733.19
2023-05-18T13:48:36.492Z,100735.13
2023-05-18T13:53:35.248Z,100733.88
2023-05-18T13:58:33.990Z,100728.31
2023-05-18T14:03:34.312Z,100735.69
2023-05-18T14:08:40.553Z,100724.00
2023-05-18T14:13:39.946Z,100727.69
2023-05-18T14:18:40.527Z,100718.16
2023-05-18T14:23:39.610Z,100723.47
2023-05-18T14:28:38.781Z,100717.94
2023-05-18T14:33:37.906Z,100716.19
2023-05-18T14:38:40.941Z,100716.44
2023-05-18T14:43:39.704Z,100712.47
2023-05-18T14:48:41.306Z,100714.19
2023-05-18T14:53:42.179Z,100714.63
2023-05-18T14:58:41.523Z,100713.44
2023-05-18T15:03:40.421Z,100713.50
2023-05-18T15:08:39.462Z,100711.91
2023-05-18T15:13:40.739Z,100718.06
2023-05-18T15:18:39.802Z,100697.69
2023-05-18T15:23:39.111Z,100697.63
2023-05-18T15:28:41.683Z,100705.81
2023-05-18T15:33:43.517Z,100694.75
2023-05-18T15:38:45.432Z,100700.38
2023-05-18T15:43:46.782Z,100704.13
2023-05-18T15:48:46.053Z,100697.44
2023-05-18T15:53:44.917Z,100703.19
2023-05-18T15:58:45.570Z,100694.63
2023-05-18T16:03:44.628Z,100707.06
2023-05-18T16:08:45.931Z,100707.91
2023-05-18T16:13:47.823Z,100715.16
2023-05-18T16:18:46.879Z,100724.06
2023-05-18T16:23:46.683Z,100734.78
2023-05-18T16:28:46.829Z,100744.41
2023-05-18T16:33:45.734Z,100741.66
2023-05-18T16:38:53.086Z,100750.81
2023-05-18T16:43:54.554Z,100745.91
2023-05-18T16:48:53.485Z,100747.50
2023-05-18T16:53:52.805Z,100757.75
2023-05-18T16:58:52.524Z,100767.34
2023-05-18T17:03:52.908Z,100769.56
2023-05-18T17:08:57.645Z,100774.91
2023-05-18T17:14:00.964Z,100777.75
2023-05-18T17:19:01.241Z,100778.44
2023-05-18T17:24:00.156Z,100781.34
2023-05-18T17:28:58.970Z,100785.63
2023-05-18T17:33:57.825Z,100796.38
2023-05-18T17:38:57.988Z,100784.72
2023-05-18T17:43:56.744Z,100798.28
2023-05-18T17:48:55.936Z,100804.44
2023-05-18T17:53:56.513Z,100805.59
2023-05-18T17:58:58.697Z,100819.56
2023-05-18T18:03:58.918Z,100814.22
2023-05-18T18:08:59.915Z,100822.50
2023-05-18T18:14:02.555Z,100822.09
2023-05-18T18:19:03.471Z,100830.41
2023-05-18T18:24:03.110Z,100827.44
2023-05-18T18:29:03.876Z,100823.66
2023-05-18T18:34:04.091Z,100828.13
2023-05-18T18:39:08.501Z,100823.31
2023-05-18T18:44:12.928Z,100824.31
2023-05-18T18:49:13.459Z,100823.72
2023-05-18T18:54:15.389Z,100829.97
2023-05-18T18:59:16.025Z,100817.03
2023-05-18T19:04:14.931Z,100827.81
2023-05-18T19:09:13.988Z,100840.88
2023-05-18T19:14:12.809Z,100853.59
2023-05-18T19:19:14.722Z,100849.63
2023-05-18T19:24:15.448Z,100864.94
2023-05-18T19:29:15.175Z,100859.34
2023-05-18T19:34:15.509Z,100859.94
2023-05-18T19:39:16.372Z,100860.19
2023-05-18T19:44:15.894Z,100855.31
2023-05-18T19:49:16.239Z,100858.09
2023-05-18T19:54:15.196Z,100855.25
2023-05-18T19:59:14.089Z,100861.25
2023-05-18T20:04:13.111Z,100857.53
2023-05-18T20:09:13.324Z,100859.34
2023-05-18T20:14:12.078Z,100863.09
2023-05-18T20:19:12.949Z,100849.06
2023-05-18T20:24:16.062Z,100860.94
2023-05-18T20:29:14.815Z,100852.50
2023-05-18T20:34:28.124Z,100849.88
2023-05-18T20:39:28.859Z,100857.91
2023-05-18T20:44:29.534Z,100860.81
2023-05-18T20:49:37.943Z,100863.56
2023-05-18T20:54:38.428Z,100869.53
2023-05-18T20:59:37.273Z,100867.84
2023-05-18T21:04:36.250Z,100863.50
2023-05-18T21:09:34.994Z,100868.09
2023-05-18T21:14:40.415Z,100864.34
2023-05-18T21:19:39.540Z,100868.47
2023-05-18T21:24:38.499Z,100867.97
2023-05-18T21:29:38.797Z,100874.41
2023-05-18T21:34:37.547Z,100867.59
2023-05-18T21:39:36.422Z,100873.69
2023-05-18T21:44:35.236Z,100870.56
2023-05-18T21:49:35.502Z,100886.16
2023-05-18T21:54:35.620Z,100885.41
2023-05-18T21:59:34.446Z,100892.06
2023-05-18T22:04:33.363Z,100900.50
2023-05-18T22:09:33.484Z,100898.88
2023-05-18T22:14:32.189Z,100889.41
2023-05-18T22:19:30.909Z,100891.47
2023-05-18T22:24:29.649Z,100884.22
2023-05-18T22:29:29.868Z,100884.19
2023-05-18T22:34:28.637Z,100886.84
2023-05-18T22:39:27.460Z,100887.53
2023-05-18T22:44:26.225Z,100889.00
2023-05-18T22:49:26.689Z,100889.63
2023-05-18T22:54:25.478Z,100898.31
2023-05-18T22:59:24.296Z,100898.31
2023-05-18T23:04:23.113Z,100902.78
2023-05-18T23:09:23.251Z,100907.38
2023-05-18T23:14:22.250Z,100901.78
2023-05-18T23:19:21.120Z,100904.91
2023-05-18T23:24:19.965Z,100907.50
2023-05-18T23:29:20.098Z,100905.53
2023-05-18T23:34:19.370Z,100902.16
2023-05-18T23:39:18.115Z,100912.97
2023-05-18T23:44:17.438Z,100904.28
2023-05-18T23:49:18.256Z,100897.28
2023-05-18T23:54:17.618Z,100895.59
2023-05-18T23:59:16.582Z,100896.75
